sensor_id;sensor_type;location;lat;lon;timestamp;pressure;altitude;pressure_sealevel;temperature
15701;BMP180;7950;42.744;23.174;2024-01-15T00:02:06;93791.47;;;-3.04
15701;BMP180;7950;42.744;23.174;2024-01-15T00:04:37;93791.94;;;-3.00
15701;BMP180;7950;42.744;23.174;2024-01-15T00:07:06;93796.53;;;-3.10
15701;BMP180;7950;42.744;23.174;2024-01-15T00:09:36;93773.53;;;-3.04
15701;BMP180;7950;42.744;23.174;2024-01-15T00:12:06;93781.97;;;-3.10
15701;BMP180;7950;42.744;23.174;2024-01-15T00:14:35;93784.88;;;-3.13
15701;BMP180;7950;42.744;23.174;2024-01-15T00:17:04;93781.53;;;-3.13
15701;BMP180;7950;42.744;23.174;2024-01-15T00:19:32;93783.31;;;-3.14
15701;BMP180;7950;42.744;23.174;2024-01-15T00:22:01;93787.31;;;-3.26
15701;BMP180;7950;42.744;23.174;2024-01-15T00:24:30;93787.78;;;-3.22
15701;BMP180;7950;42.744;23.174;2024-01-15T00:26:59;93791.47;;;-3.25
15701;BMP180;7950;42.744;23.174;2024-01-15T00:29:28;93789.63;;;-3.31
15701;BMP180;7950;42.744;23.174;2024-01-15T00:31:57;93779.72;;;-3.34
15701;BMP180;7950;42.744;23.174;2024-01-15T00:34:25;93788.78;;;-3.38
15701;BMP180;7950;42.744;23.174;2024-01-15T00:36:54;93782.13;;;-3.32
15701;BMP180;7950;42.744;23.174;2024-01-15T00:39:23;93791.66;;;-3.26
15701;BMP180;7950;42.744;23.174;2024-01-15T00:41:51;93787.31;;;-3.26
15701;BMP180;7950;42.744;23.174;2024-01-15T00:44:21;93794.66;;;-3.23
15701;BMP180;7950;42.744;23.174;2024-01-15T00:46:49;93793.59;;;-3.28
15701;BMP180;7950;42.744;23.174;2024-01-15T00:49:18;93777.69;;;-3.24
15701;BMP180;7950;42.744;23.174;2024-01-15T00:51:47;93783.53;;;-3.30
15701;BMP180;7950;42.744;23.174;2024-01-15T00:54:16;93789.28;;;-3.28
15701;BMP180;7950;42.744;23.174;2024-01-15T00:56:45;93779.94;;;-3.35
15701;BMP180;7950;42.744;23.174;2024-01-15T00:59:13;93793.53;;;-3.35
15701;BMP180;7950;42.744;23.174;2024-01-15T01:01:44;93786.81;;;-3.36
15701;BMP180;7950;42.744;23.174;2024-01-15T01:04:13;93780.03;;;-3.43
15701;BMP180;7950;42.744;23.174;2024-01-15T01:06:42;93783.66;;;-3.38
15701;BMP180;7950;42.744;23.174;2024-01-15T01:09:11;93782.97;;;-3.46
15701;BMP180;7950;42.744;23.174;2024-01-15T01:11:39;93777.66;;;-3.45
15701;BMP180;7950;42.744;23.174;2024-01-15T01:14:08;93778.56;;;-3.52
15701;BMP180;7950;42.744;23.174;2024-01-15T01:16:36;93774.44;;;-3.53
15701;BMP180;7950;42.744;23.174;2024-01-15T01:19:08;93774.59;;;-3.55
15701;BMP180;7950;42.744;23.174;2024-01-15T01:21:37;93774.44;;;-3.53
15701;BMP180;7950;42.744;23.174;2024-01-15T01:24:05;93773.44;;;-3.52
15701;BMP180;7950;42.744;23.174;2024-01-15T01:26:34;93759.41;;;-3.56
15701;BMP180;7950;42.744;23.174;2024-01-15T01:29:03;93757.00;;;-3.58
15701;BMP180;7950;42.744;23.174;2024-01-15T01:31:31;93755.78;;;-3.62
15701;BMP180;7950;42.744;23.174;2024-01-15T01:34:00;93757.00;;;-3.58
15701;BMP180;7950;42.744;23.174;2024-01-15T01:36:31;93768.25;;;-3.59
15701;BMP180;7950;42.744;23.174;2024-01-15T01:39:00;93761.78;;;-3.55
15701;BMP180;7950;42.744;23.174;2024-01-15T01:41:29;93756.28;;;-3.52
15701;BMP180;7950;42.744;23.174;2024-01-15T01:43:57;93762.47;;;-3.61
15701;BMP180;7950;42.744;23.174;2024-01-15T01:46:28;93745.28;;;-3.67
15701;BMP180;7950;42.744;23.174;2024-01-15T01:48:58;93749.41;;;-3.66
15701;BMP180;7950;42.744;23.174;2024-01-15T01:51:34;93758.09;;;-3.67
15701;BMP180;7950;42.744;23.174;2024-01-15T01:54:04;93761.00;;;-3.70
15701;BMP180;7950;42.744;23.174;2024-01-15T01:56:35;93750.69;;;-3.76
15701;BMP180;7950;42.744;23.174;2024-01-15T01:59:04;93756.97;;;-3.79
15701;BMP180;7950;42.744;23.174;2024-01-15T02:01:36;93738.50;;;-3.74
15701;BMP180;7950;42.744;23.174;2024-01-15T02:04:05;93733.19;;;-3.73
15701;BMP180;7950;42.744;23.174;2024-01-15T02:06:35;93724.88;;;-3.75
15701;BMP180;7950;42.744;23.174;2024-01-15T02:09:04;93731.59;;;-3.74
15701;BMP180;7950;42.744;23.174;2024-01-15T02:11:33;93736.22;;;-3.84
15701;BMP180;7950;42.744;23.174;2024-01-15T02:14:02;93717.69;;;-3.86
15701;BMP180;7950;42.744;23.174;2024-01-15T02:16:31;93709.38;;;-3.88
15701;BMP180;7950;42.744;23.174;2024-01-15T02:19:00;93695.94;;;-3.90
15701;BMP180;7950;42.744;23.174;2024-01-15T02:21:28;93691.22;;;-3.72
15701;BMP180;7950;42.744;23.174;2024-01-15T02:24:00;93689.31;;;-3.84
15701;BMP180;7950;42.744;23.174;2024-01-15T02:26:28;93686.38;;;-3.81
15701;BMP180;7950;42.744;23.174;2024-01-15T02:28:57;93687.25;;;-3.74
15701;BMP180;7950;42.744;23.174;2024-01-15T02:31:25;93694.25;;;-3.83
15701;BMP180;7950;42.744;23.174;2024-01-15T02:33:54;93685.63;;;-3.96
15701;BMP180;7950;42.744;23.174;2024-01-15T02:36:23;93684.47;;;-3.94
15701;BMP180;7950;42.744;23.174;2024-01-15T02:38:51;93687.63;;;-3.92
15701;BMP180;7950;42.744;23.174;2024-01-15T02:41:21;93684.13;;;-3.91
15701;BMP180;7950;42.744;23.174;2024-01-15T02:43:50;93686.69;;;-3.91
15701;BMP180;7950;42.744;23.174;2024-01-15T02:46:18;93692.47;;;-3.82
15701;BMP180;7950;42.744;23.174;2024-01-15T02:48:47;93700.84;;;-3.74
15701;BMP180;7950;42.744;23.174;2024-01-15T02:51:15;93698.41;;;-3.82
15701;BMP180;7950;42.744;23.174;2024-01-15T02:53:44;93682.22;;;-3.82
15701;BMP180;7950;42.744;23.174;2024-01-15T02:56:13;93673.81;;;-3.76
15701;BMP180;7950;42.744;23.174;2024-01-15T02:58:43;93676.75;;;-3.79
15701;BMP180;7950;42.744;23.174;2024-01-15T03:01:11;93683.81;;;-3.81
15701;BMP180;7950;42.744;23.174;2024-01-15T03:03:40;93677.91;;;-3.82
15701;BMP180;7950;42.744;23.174;2024-01-15T03:06:10;93684.25;;;-3.78
15701;BMP180;7950;42.744;23.174;2024-01-15T03:08:38;93677.84;;;-3.88
15701;BMP180;7950;42.744;23.174;2024-01-15T03:11:07;93669.97;;;-3.87
15701;BMP180;7950;42.744;23.174;2024-01-15T03:13:36;93670.03;;;-3.80
15701;BMP180;7950;42.744;23.174;2024-01-15T03:16:06;93677.28;;;-3.84
15701;BMP180;7950;42.744;23.174;2024-01-15T03:18:35;93654.59;;;-3.87
15701;BMP180;7950;42.744;23.174;2024-01-15T03:21:05;93660.09;;;-3.90
15701;BMP180;7950;42.744;23.174;2024-01-15T03:23:34;93657.78;;;-3.85
15701;BMP180;7950;42.744;23.174;2024-01-15T03:26:03;93657.91;;;-3.72
15701;BMP180;7950;42.744;23.174;2024-01-15T03:28:31;93667.66;;;-3.82
15701;BMP180;7950;42.744;23.174;2024-01-15T03:31:00;93666.44;;;-3.86
15701;BMP180;7950;42.744;23.174;2024-01-15T03:33:30;93672.34;;;-3.85
15701;BMP180;7950;42.744;23.174;2024-01-15T03:35:59;93676.44;;;-3.91
15701;BMP180;7950;42.744;23.174;2024-01-15T03:38:28;93674.13;;;-3.86
15701;BMP180;7950;42.744;23.174;2024-01-15T03:40:57;93683.16;;;-3.90
15701;BMP180;7950;42.744;23.174;2024-01-15T03:43:27;93672.34;;;-3.85
15701;BMP180;7950;42.744;23.174;2024-01-15T03:45:55;93670.59;;;-3.85
15701;BMP180;7950;42.744;23.174;2024-01-15T03:48:24;93664.84;;;-3.87
15701;BMP180;7950;42.744;23.174;2024-01-15T03:50:54;93651.91;;;-3.79
15701;BMP180;7950;42.744;23.174;2024-01-15T03:53:23;93655.88;;;-3.76
15701;BMP180;7950;42.744;23.174;2024-01-15T03:55:52;93652.53;;;-3.77
15701;BMP180;7950;42.744;23.174;2024-01-15T03:58:20;93654.00;;;-3.68
15701;BMP180;7950;42.744;23.174;2024-01-15T04:00:49;93641.25;;;-3.61
15701;BMP180;7950;42.744;23.174;2024-01-15T04:03:18;93639.91;;;-3.57
15701;BMP180;7950;42.744;23.174;2024-01-15T04:05:46;93638.69;;;-3.61
15701;BMP180;7950;42.744;23.174;2024-01-15T04:08:16;93643.94;;;-3.48
15701;BMP180;7950;42.744;23.174;2024-01-15T04:10:45;93637.09;;;-3.41
15701;BMP180;7950;42.744;23.174;2024-01-15T04:13:14;93641.03;;;-3.39
15701;BMP180;7950;42.744;23.174;2024-01-15T04:15:42;93637.38;;;-3.30
15701;BMP180;7950;42.744;23.174;2024-01-15T04:18:11;93629.19;;;-3.19
15701;BMP180;7950;42.744;23.174;2024-01-15T04:20:40;93635.72;;;-3.16
15701;BMP180;7950;42.744;23.174;2024-01-15T04:23:08;93632.69;;;-3.26
15701;BMP180;7950;42.744;23.174;2024-01-15T04:25:38;93631.75;;;-3.19
15701;BMP180;7950;42.744;23.174;2024-01-15T04:28:09;93628.78;;;-3.22
15701;BMP180;7950;42.744;23.174;2024-01-15T04:30:38;93626.97;;;-3.22
15701;BMP180;7950;42.744;23.174;2024-01-15T04:33:07;93633.34;;;-3.18
15701;BMP180;7950;42.744;23.174;2024-01-15T04:35:35;93621.34;;;-3.11
15701;BMP180;7950;42.744;23.174;2024-01-15T04:38:04;93624.47;;;-3.15
15701;BMP180;7950;42.744;23.174;2024-01-15T04:40:32;93626.66;;;-3.12
15701;BMP180;7950;42.744;23.174;2024-01-15T04:43:03;93624.47;;;-3.15
15701;BMP180;7950;42.744;23.174;2024-01-15T04:45:31;93628.28;;;-3.32
15701;BMP180;7950;42.744;23.174;2024-01-15T04:48:00;93618.41;;;-3.35
15701;BMP180;7950;42.744;23.174;2024-01-15T04:50:29;93614.19;;;-3.43
15701;BMP180;7950;42.744;23.174;2024-01-15T04:52:57;93619.25;;;-3.49
15701;BMP180;7950;42.744;23.174;2024-01-15T04:55:26;93625.19;;;-3.49
15701;BMP180;7950;42.744;23.174;2024-01-15T04:57:54;93622.28;;;-3.46
15701;BMP180;7950;42.744;23.174;2024-01-15T05:00:24;93623.50;;;-3.42
15701;BMP180;7950;42.744;23.174;2024-01-15T05:02:53;93620.19;;;-3.36
15701;BMP180;7950;42.744;23.174;2024-01-15T05:05:21;93624.19;;;-3.27
15701;BMP180;7950;42.744;23.174;2024-01-15T05:07:50;93616.84;;;-3.30
15701;BMP180;7950;42.744;23.174;2024-01-15T05:10:18;93616.84;;;-3.30
15701;BMP180;7950;42.744;23.174;2024-01-15T05:12:47;93609.41;;;-3.25
15701;BMP180;7950;42.744;23.174;2024-01-15T05:15:15;93607.03;;;-3.26
15701;BMP180;7950;42.744;23.174;2024-01-15T05:17:45;93604.53;;;-3.20
15701;BMP180;7950;42.744;23.174;2024-01-15T05:20:14;93605.53;;;-3.14
15701;BMP180;7950;42.744;23.174;2024-01-15T05:22:43;93610.88;;;-3.16
15701;BMP180;7950;42.744;23.174;2024-01-15T05:25:11;93612.53;;;-3.02
15701;BMP180;7950;42.744;23.174;2024-01-15T05:27:40;93597.38;;;-2.97
15701;BMP180;7950;42.744;23.174;2024-01-15T05:30:10;93595.41;;;-2.95
15701;BMP180;7950;42.744;23.174;2024-01-15T05:32:39;93593.59;;;-3.01
15701;BMP180;7950;42.744;23.174;2024-01-15T05:35:09;93585.44;;;-3.11
15701;BMP180;7950;42.744;23.174;2024-01-15T05:37:44;93583.44;;;-3.15
15701;BMP180;7950;42.744;23.174;2024-01-15T05:40:13;93586.84;;;-3.08
15701;BMP180;7950;42.744;23.174;2024-01-15T05:42:42;93579.19;;;-3.02
15701;BMP180;7950;42.744;23.174;2024-01-15T05:45:10;93575.28;;;-2.98
15701;BMP180;7950;42.744;23.174;2024-01-15T05:47:39;93573.63;;;-3.05
15701;BMP180;7950;42.744;23.174;2024-01-15T05:50:09;93564.94;;;-3.11
15701;BMP180;7950;42.744;23.174;2024-01-15T05:52:38;93566.97;;;-3.00
15701;BMP180;7950;42.744;23.174;2024-01-15T05:55:07;93584.69;;;-3.05
15701;BMP180;7950;42.744;23.174;2024-01-15T05:57:37;93594.16;;;-3.05
15701;BMP180;7950;42.744;23.174;2024-01-15T06:00:07;93602.09;;;-3.00
15701;BMP180;7950;42.744;23.174;2024-01-15T06:02:37;93594.84;;;-2.90
15701;BMP180;7950;42.744;23.174;2024-01-15T06:05:07;93590.66;;;-2.98
15701;BMP180;7950;42.744;23.174;2024-01-15T06:07:37;93586.16;;;-2.89
15701;BMP180;7950;42.744;23.174;2024-01-15T06:10:07;93584.78;;;-2.92
15701;BMP180;7950;42.744;23.174;2024-01-15T06:12:35;93584.59;;;-2.90
15701;BMP180;7950;42.744;23.174;2024-01-15T06:15:05;93571.97;;;-2.85
15701;BMP180;7950;42.744;23.174;2024-01-15T06:17:33;93571.47;;;-2.68
15701;BMP180;7950;42.744;23.174;2024-01-15T06:20:02;93573.13;;;-2.54
15701;BMP180;7950;42.744;23.174;2024-01-15T06:22:31;93572.59;;;-2.30
15701;BMP180;7950;42.744;23.174;2024-01-15T06:25:02;93586.25;;;-2.29
15701;BMP180;7950;42.744;23.174;2024-01-15T06:27:31;93581.94;;;-2.16
15701;BMP180;7950;42.744;23.174;2024-01-15T06:29:59;93575.50;;;-1.73
15701;BMP180;7950;42.744;23.174;2024-01-15T06:32:28;93570.13;;;-1.00
15701;BMP180;7950;42.744;23.174;2024-01-15T06:34:57;93568.81;;;-0.45
15701;BMP180;7950;42.744;23.174;2024-01-15T06:37:26;93571.94;;;0.14
15701;BMP180;7950;42.744;23.174;2024-01-15T06:39:54;93578.94;;;0.32
15701;BMP180;7950;42.744;23.174;2024-01-15T06:42:25;93576.72;;;0.35
15701;BMP180;7950;42.744;23.174;2024-01-15T06:44:54;93567.78;;;0.06
15701;BMP180;7950;42.744;23.174;2024-01-15T06:47:22;93572.75;;;-0.36
15701;BMP180;7950;42.744;23.174;2024-01-15T06:49:51;93578.75;;;-0.49
15701;BMP180;7950;42.744;23.174;2024-01-15T06:52:20;93575.03;;;-0.66
15701;BMP180;7950;42.744;23.174;2024-01-15T06:54:48;93585.53;;;-0.74
15701;BMP180;7950;42.744;23.174;2024-01-15T06:57:17;93585.78;;;-0.88
15701;BMP180;7950;42.744;23.174;2024-01-15T06:59:49;93591.13;;;-0.96
15701;BMP180;7950;42.744;23.174;2024-01-15T07:02:17;93577.47;;;-0.97
15701;BMP180;7950;42.744;23.174;2024-01-15T07:04:46;93574.13;;;-1.04
15701;BMP180;7950;42.744;23.174;2024-01-15T07:07:15;93581.84;;;-1.17
15701;BMP180;7950;42.744;23.174;2024-01-15T07:09:44;93591.94;;;-1.15
15701;BMP180;7950;42.744;23.174;2024-01-15T07:12:12;93590.16;;;-1.15
15701;BMP180;7950;42.744;23.174;2024-01-15T07:14:41;93587.59;;;-1.15
15701;BMP180;7950;42.744;23.174;2024-01-15T07:17:11;93588.59;;;-1.16
15701;BMP180;7950;42.744;23.174;2024-01-15T07:19:39;93589.78;;;-1.12
15701;BMP180;7950;42.744;23.174;2024-01-15T07:22:08;93575.34;;;-1.19
15701;BMP180;7950;42.744;23.174;2024-01-15T07:24:37;93577.47;;;-1.10
15701;BMP180;7950;42.744;23.174;2024-01-15T07:27:05;93575.91;;;-1.17
15701;BMP180;7950;42.744;23.174;2024-01-15T07:29:34;93580.47;;;-1.19
15701;BMP180;7950;42.744;23.174;2024-01-15T07:32:05;93574.53;;;-1.13
15701;BMP180;7950;42.744;23.174;2024-01-15T07:34:36;93578.28;;;-1.16
15701;BMP180;7950;42.744;23.174;2024-01-15T07:37:05;93576.28;;;-1.07
15701;BMP180;7950;42.744;23.174;2024-01-15T07:39:33;93581.06;;;-1.11
15701;BMP180;7950;42.744;23.174;2024-01-15T07:42:02;93583.06;;;-1.13
15701;BMP180;7950;42.744;23.174;2024-01-15T07:44:31;93569.56;;;-1.15
15701;BMP180;7950;42.744;23.174;2024-01-15T07:46:59;93560.25;;;-1.03
15701;BMP180;7950;42.744;23.174;2024-01-15T07:49:28;93562.22;;;-0.92
15701;BMP180;7950;42.744;23.174;2024-01-15T07:51:58;93537.84;;;-0.89
15701;BMP180;7950;42.744;23.174;2024-01-15T07:54:26;93542.75;;;-0.75
15701;BMP180;7950;42.744;23.174;2024-01-15T07:56:56;93541.56;;;-0.72
15701;BMP180;7950;42.744;23.174;2024-01-15T07:59:25;93560.19;;;-0.64
15701;BMP180;7950;42.744;23.174;2024-01-15T08:01:54;93557.97;;;-0.54
15701;BMP180;7950;42.744;23.174;2024-01-15T08:04:22;93570.41;;;-0.44
15701;BMP180;7950;42.744;23.174;2024-01-15T08:06:51;93557.88;;;-0.34
15701;BMP180;7950;42.744;23.174;2024-01-15T08:09:21;93562.81;;;-0.26
15701;BMP180;7950;42.744;23.174;2024-01-15T08:11:50;93573.50;;;-0.23
15701;BMP180;7950;42.744;23.174;2024-01-15T08:14:18;93584.91;;;-0.06
15701;BMP180;7950;42.744;23.174;2024-01-15T08:16:47;93578.28;;;0.12
15701;BMP180;7950;42.744;23.174;2024-01-15T08:19:16;93578.38;;;0.30
15701;BMP180;7950;42.744;23.174;2024-01-15T08:21:44;93577.03;;;0.52
15701;BMP180;7950;42.744;23.174;2024-01-15T08:24:14;93574.94;;;0.67
15701;BMP180;7950;42.744;23.174;2024-01-15T08:26:45;93577.78;;;0.59
15701;BMP180;7950;42.744;23.174;2024-01-15T08:29:13;93568.19;;;0.66
15701;BMP180;7950;42.744;23.174;2024-01-15T08:31:43;93555.72;;;0.63
15701;BMP180;7950;42.744;23.174;2024-01-15T08:34:12;93554.50;;;0.65
15701;BMP180;7950;42.744;23.174;2024-01-15T08:36:40;93561.78;;;0.75
15701;BMP180;7950;42.744;23.174;2024-01-15T08:39:09;93572.00;;;0.88
15701;BMP180;7950;42.744;23.174;2024-01-15T08:41:38;93565.56;;;0.97
15701;BMP180;7950;42.744;23.174;2024-01-15T08:44:08;93567.88;;;1.05
15701;BMP180;7950;42.744;23.174;2024-01-15T08:46:36;93559.94;;;1.06
15701;BMP180;7950;42.744;23.174;2024-01-15T08:49:05;93545.69;;;0.97
15701;BMP180;7950;42.744;23.174;2024-01-15T08:51:34;93548.44;;;1.02
15701;BMP180;7950;42.744;23.174;2024-01-15T08:54:03;93555.56;;;1.25
15701;BMP180;7950;42.744;23.174;2024-01-15T08:56:31;93548.75;;;1.48
15701;BMP180;7950;42.744;23.174;2024-01-15T08:59:00;93540.97;;;1.66
15701;BMP180;7950;42.744;23.174;2024-01-15T09:01:30;93528.50;;;1.81
15701;BMP180;7950;42.744;23.174;2024-01-15T09:03:58;93515.22;;;1.89
15701;BMP180;7950;42.744;23.174;2024-01-15T09:06:27;93519.91;;;1.99
15701;BMP180;7950;42.744;23.174;2024-01-15T09:08:56;93514.13;;;2.26
15701;BMP180;7950;42.744;23.174;2024-01-15T09:11:24;93507.25;;;2.61
15701;BMP180;7950;42.744;23.174;2024-01-15T09:13:53;93482.81;;;2.80
15701;BMP180;7950;42.744;23.174;2024-01-15T09:16:21;93483.72;;;3.09
15701;BMP180;7950;42.744;23.174;2024-01-15T09:18:51;93484.91;;;3.29
15701;BMP180;7950;42.744;23.174;2024-01-15T09:21:20;93488.78;;;3.66
15701;BMP180;7950;42.744;23.174;2024-01-15T09:23:48;93482.28;;;4.36
15701;BMP180;7950;42.744;23.174;2024-01-15T09:26:17;93467.47;;;5.03
15701;BMP180;7950;42.744;23.174;2024-01-15T09:28:46;93459.38;;;5.59
15701;BMP180;7950;42.744;23.174;2024-01-15T09:31:14;93453.72;;;6.10
15701;BMP180;7950;42.744;23.174;2024-01-15T09:33:44;93455.78;;;6.66
15701;BMP180;7950;42.744;23.174;2024-01-15T09:36:14;93449.56;;;6.72
15701;BMP180;7950;42.744;23.174;2024-01-15T09:38:43;93442.53;;;6.67
15701;BMP180;7950;42.744;23.174;2024-01-15T09:41:11;93423.41;;;6.57
15701;BMP180;7950;42.744;23.174;2024-01-15T09:43:41;93423.66;;;6.55
15701;BMP180;7950;42.744;23.174;2024-01-15T09:46:10;93392.69;;;6.64
15701;BMP180;7950;42.744;23.174;2024-01-15T09:48:40;93392.84;;;6.84
15701;BMP180;7950;42.744;23.174;2024-01-15T09:51:09;93402.97;;;7.22
15701;BMP180;7950;42.744;23.174;2024-01-15T09:53:41;93400.25;;;7.53
15701;BMP180;7950;42.744;23.174;2024-01-15T09:56:11;93409.94;;;7.68
15701;BMP180;7950;42.744;23.174;2024-01-15T09:58:40;93414.72;;;7.91
15701;BMP180;7950;42.744;23.174;2024-01-15T10:01:11;93393.34;;;8.04
15701;BMP180;7950;42.744;23.174;2024-01-15T10:03:40;93376.44;;;8.41
15701;BMP180;7950;42.744;23.174;2024-01-15T10:06:11;93360.97;;;8.75
15701;BMP180;7950;42.744;23.174;2024-01-15T10:08:48;93366.97;;;8.90
15701;BMP180;7950;42.744;23.174;2024-01-15T10:11:17;93365.69;;;8.78
15701;BMP180;7950;42.744;23.174;2024-01-15T10:13:47;93364.66;;;8.39
15701;BMP180;7950;42.744;23.174;2024-01-15T10:16:20;93358.06;;;7.96
15701;BMP180;7950;42.744;23.174;2024-01-15T10:18:49;93346.00;;;7.60
15701;BMP180;7950;42.744;23.174;2024-01-15T10:21:18;93342.75;;;7.28
15701;BMP180;7950;42.744;23.174;2024-01-15T10:23:49;93349.69;;;7.08
15701;BMP180;7950;42.744;23.174;2024-01-15T10:26:17;93343.38;;;6.94
15701;BMP180;7950;42.744;23.174;2024-01-15T10:28:50;93347.47;;;6.80
15701;BMP180;7950;42.744;23.174;2024-01-15T10:31:20;93335.94;;;6.66
15701;BMP180;7950;42.744;23.174;2024-01-15T10:33:52;93331.69;;;6.55
15701;BMP180;7950;42.744;23.174;2024-01-15T10:36:21;93338.38;;;6.41
15701;BMP180;7950;42.744;23.174;2024-01-15T10:38:51;93327.41;;;6.34
15701;BMP180;7950;42.744;23.174;2024-01-15T10:41:19;93322.69;;;6.31
15701;BMP180;7950;42.744;23.174;2024-01-15T10:43:48;93322.63;;;6.21
15701;BMP180;7950;42.744;23.174;2024-01-15T10:46:17;93321.94;;;6.04
15701;BMP180;7950;42.744;23.174;2024-01-15T10:48:46;93310.19;;;5.96
15701;BMP180;7950;42.744;23.174;2024-01-15T10:51:15;93317.94;;;5.91
15701;BMP180;7950;42.744;23.174;2024-01-15T10:53:45;93318.44;;;5.88
15701;BMP180;7950;42.744;23.174;2024-01-15T10:56:16;93315.97;;;5.77
15701;BMP180;7950;42.744;23.174;2024-01-15T10:58:46;93311.28;;;5.79
15701;BMP180;7950;42.744;23.174;2024-01-15T11:01:16;93302.91;;;5.98
15701;BMP180;7950;42.744;23.174;2024-01-15T11:03:47;93295.81;;;5.94
15701;BMP180;7950;42.744;23.174;2024-01-15T11:06:17;93281.75;;;5.90
15701;BMP180;7950;42.744;23.174;2024-01-15T11:08:49;93284.63;;;5.88
15701;BMP180;7950;42.744;23.174;2024-01-15T11:11:21;93289.56;;;5.90
15701;BMP180;7950;42.744;23.174;2024-01-15T11:13:50;93285.91;;;5.86
15701;BMP180;7950;42.744;23.174;2024-01-15T11:16:19;93299.84;;;5.80
15701;BMP180;7950;42.744;23.174;2024-01-15T11:19:05;93292.28;;;5.78
15701;BMP180;7950;42.744;23.174;2024-01-15T11:21:42;93283.25;;;5.81
15701;BMP180;7950;42.744;23.174;2024-01-15T11:24:38;93263.75;;;5.83
15701;BMP180;7950;42.744;23.174;2024-01-15T11:27:09;93277.53;;;5.84
15701;BMP180;7950;42.744;23.174;2024-01-15T11:29:37;93278.06;;;5.81
15701;BMP180;7950;42.744;23.174;2024-01-15T11:32:07;93273.78;;;5.75
15701;BMP180;7950;42.744;23.174;2024-01-15T11:34:56;93274.34;;;5.77
15701;BMP180;7950;42.744;23.174;2024-01-15T11:37:29;93261.41;;;5.82
15701;BMP180;7950;42.744;23.174;2024-01-15T11:40:02;93274.06;;;5.78
15701;BMP180;7950;42.744;23.174;2024-01-15T11:42:33;93263.41;;;5.80
15701;BMP180;7950;42.744;23.174;2024-01-15T11:45:03;93246.50;;;5.77
15701;BMP180;7950;42.744;23.174;2024-01-15T11:48:11;93242.59;;;5.80
15701;BMP180;7950;42.744;23.174;2024-01-15T11:50:42;93230.59;;;5.74
15701;BMP180;7950;42.744;23.174;2024-01-15T11:53:28;93241.28;;;5.77
15701;BMP180;7950;42.744;23.174;2024-01-15T11:56:03;93229.56;;;5.75
15701;BMP180;7950;42.744;23.174;2024-01-15T11:58:36;93230.56;;;5.69
15701;BMP180;7950;42.744;23.174;2024-01-15T12:01:05;93230.56;;;5.69
15701;BMP180;7950;42.744;23.174;2024-01-15T12:03:34;93232.50;;;5.52
15701;BMP180;7950;42.744;23.174;2024-01-15T12:06:05;93239.25;;;5.53
15701;BMP180;7950;42.744;23.174;2024-01-15T12:08:34;93227.25;;;5.47
15701;BMP180;7950;42.744;23.174;2024-01-15T12:11:07;93225.09;;;5.39
15701;BMP180;7950;42.744;23.174;2024-01-15T12:13:40;93225.59;;;5.36
15701;BMP180;7950;42.744;23.174;2024-01-15T12:16:09;93229.47;;;5.33
15701;BMP180;7950;42.744;23.174;2024-01-15T12:18:38;93215.19;;;5.36
15701;BMP180;7950;42.744;23.174;2024-01-15T12:21:07;93211.84;;;5.40
15701;BMP180;7950;42.744;23.174;2024-01-15T12:23:36;93208.50;;;5.45
15701;BMP180;7950;42.744;23.174;2024-01-15T12:26:04;93202.34;;;5.51
15701;BMP180;7950;42.744;23.174;2024-01-15T12:28:33;93199.75;;;5.56
15701;BMP180;7950;42.744;23.174;2024-01-15T12:31:03;93197.16;;;5.56
15701;BMP180;7950;42.744;23.174;2024-01-15T12:33:33;93184.16;;;5.56
15701;BMP180;7950;42.744;23.174;2024-01-15T12:36:04;93184.69;;;5.58
15701;BMP180;7950;42.744;23.174;2024-01-15T12:38:32;93183.59;;;5.54
15701;BMP180;7950;42.744;23.174;2024-01-15T12:41:01;93174.72;;;5.50
15701;BMP180;7950;42.744;23.174;2024-01-15T12:43:29;93177.84;;;5.47
15701;BMP180;7950;42.744;23.174;2024-01-15T12:45:58;93185.44;;;5.53
15701;BMP180;7950;42.744;23.174;2024-01-15T12:48:28;93181.00;;;5.54
15701;BMP180;7950;42.744;23.174;2024-01-15T12:50:57;93178.59;;;5.42
15701;BMP180;7950;42.744;23.174;2024-01-15T12:53:25;93177.16;;;5.25
15701;BMP180;7950;42.744;23.174;2024-01-15T12:55:54;93173.91;;;5.13
15701;BMP180;7950;42.744;23.174;2024-01-15T12:58:22;93172.00;;;5.03
15701;BMP180;7950;42.744;23.174;2024-01-15T13:00:51;93166.28;;;5.01
15701;BMP180;7950;42.744;23.174;2024-01-15T13:03:20;93174.78;;;4.97
15701;BMP180;7950;42.744;23.174;2024-01-15T13:05:50;93163.03;;;4.89
15701;BMP180;7950;42.744;23.174;2024-01-15T13:08:19;93162.97;;;4.84
15701;BMP180;7950;42.744;23.174;2024-01-15T13:10:51;93171.56;;;4.85
15701;BMP180;7950;42.744;23.174;2024-01-15T13:13:23;93157.25;;;4.82
15701;BMP180;7950;42.744;23.174;2024-01-15T13:15:51;93155.94;;;4.80
15701;BMP180;7950;42.744;23.174;2024-01-15T13:18:20;93159.50;;;4.74
15701;BMP180;7950;42.744;23.174;2024-01-15T13:20:50;93152.78;;;4.78
15701;BMP180;7950;42.744;23.174;2024-01-15T13:23:18;93162.75;;;4.86
15701;BMP180;7950;42.744;23.174;2024-01-15T13:25:47;93150.75;;;4.80
15701;BMP180;7950;42.744;23.174;2024-01-15T13:28:17;93147.78;;;4.71
15701;BMP180;7950;42.744;23.174;2024-01-15T13:30:45;93152.13;;;4.66
15701;BMP180;7950;42.744;23.174;2024-01-15T13:33:15;93155.78;;;4.65
15701;BMP180;7950;42.744;23.174;2024-01-15T13:35:43;93144.28;;;4.61
15701;BMP180;7950;42.744;23.174;2024-01-15T13:38:14;93145.56;;;4.58
15701;BMP180;7950;42.744;23.174;2024-01-15T13:40:42;93143.22;;;4.57
15701;BMP180;7950;42.744;23.174;2024-01-15T13:43:12;93138.81;;;4.57
15701;BMP180;7950;42.744;23.174;2024-01-15T13:45:41;93140.88;;;4.55
15701;BMP180;7950;42.744;23.174;2024-01-15T13:48:10;93121.97;;;4.60
15701;BMP180;7950;42.744;23.174;2024-01-15T13:50:38;93119.91;;;4.62
15701;BMP180;7950;42.744;23.174;2024-01-15T13:53:07;93119.84;;;4.57
15701;BMP180;7950;42.744;23.174;2024-01-15T13:55:38;93130.22;;;4.57
15701;BMP180;7950;42.744;23.174;2024-01-15T13:58:06;93125.00;;;4.52
15701;BMP180;7950;42.744;23.174;2024-01-15T14:00:35;93136.16;;;4.52
15701;BMP180;7950;42.744;23.174;2024-01-15T14:15:01;93108.41;;;4.53
15701;BMP180;7950;42.744;23.174;2024-01-15T14:17:30;93105.50;;;4.49
15701;BMP180;7950;42.744;23.174;2024-01-15T14:19:59;93102.13;;;4.49
15701;BMP180;7950;42.744;23.174;2024-01-15T14:22:28;93107.81;;;4.46
15701;BMP180;7950;42.744;23.174;2024-01-15T14:24:56;93107.00;;;4.45
15701;BMP180;7950;42.744;23.174;2024-01-15T14:27:25;93099.97;;;4.41
15701;BMP180;7950;42.744;23.174;2024-01-15T14:29:54;93096.94;;;4.49
15701;BMP180;7950;42.744;23.174;2024-01-15T14:32:24;93098.22;;;4.46
15701;BMP180;7950;42.744;23.174;2024-01-15T14:34:53;93088.53;;;4.42
15701;BMP180;7950;42.744;23.174;2024-01-15T14:37:21;93090.09;;;4.43
15701;BMP180;7950;42.744;23.174;2024-01-15T14:39:50;93085.28;;;4.51